createdAt,value
2018-12-16T00:00:50.516Z,5.24
2018-12-16T00:15:50.548Z,5.39
2018-12-16T00:30:53.705Z,5.52
2018-12-16T00:45:50.325Z,5.45
2018-12-16T01:00:50.837Z,5.47
2018-12-16T01:15:50.704Z,5.52
2018-12-16T01:30:51.106Z,5.65
2018-12-16T01:45:51.072Z,5.67
2018-12-16T02:00:50.987Z,5.62
2018-12-16T02:15:56.245Z,5.56
2018-12-16T02:30:50.738Z,5.45
2018-12-16T02:45:51.213Z,5.35
2018-12-16T03:00:51.141Z,5.39
2018-12-16T03:15:51.244Z,5.47
2018-12-16T03:30:52.493Z,5.46
2018-12-16T03:45:51.405Z,5.49
2018-12-16T04:00:51.750Z,5.51
2018-12-16T04:15:51.186Z,5.62
2018-12-16T04:30:50.104Z,5.72
2018-12-16T04:45:50.525Z,5.79
2018-12-16T05:00:52.391Z,5.85
2018-12-16T05:15:52.295Z,5.74
2018-12-16T05:30:50.815Z,5.63
2018-12-16T05:45:51.670Z,5.52
2018-12-16T06:00:53.640Z,5.35
2018-12-16T06:15:51.566Z,5.14
2018-12-16T06:30:50.933Z,5.06
2018-12-16T06:45:53.383Z,4.96
2018-12-16T07:00:50.961Z,4.64
2018-12-16T07:15:52.619Z,4.25
2018-12-16T07:30:53.111Z,3.90
2018-12-16T07:45:51.079Z,3.45
2018-12-16T08:00:50.944Z,3.17
2018-12-16T08:15:50.768Z,2.66
2018-12-16T08:30:53.346Z,2.18
2018-12-16T08:45:51.451Z,1.85
2018-12-16T09:00:51.683Z,1.60
2018-12-16T09:15:58.992Z,1.34
2018-12-16T09:30:57.953Z,1.12
2018-12-16T09:45:51.431Z,0.97
2018-12-16T10:00:51.401Z,0.83
2018-12-16T10:15:51.318Z,0.73
2018-12-16T10:30:50.711Z,0.72
2018-12-16T10:45:50.708Z,0.58
2018-12-16T11:00:56.907Z,0.46
2018-12-16T11:15:51.012Z,0.42
2018-12-16T11:30:51.560Z,0.31
2018-12-16T11:45:50.875Z,0.52
2018-12-16T12:00:51.297Z,0.52
2018-12-16T12:15:52.685Z,0.52
2018-12-16T12:30:51.184Z,0.50
2018-12-16T12:45:51.070Z,0.61
2018-12-16T13:00:50.968Z,0.56
2018-12-16T13:15:50.947Z,0.53
2018-12-16T13:30:51.847Z,0.59
2018-12-16T13:45:52.376Z,0.65
2018-12-16T14:00:57.768Z,0.63
2018-12-16T14:15:52.465Z,0.51
2018-12-16T14:30:51.486Z,0.54
2018-12-16T14:45:51.445Z,0.51
2018-12-16T15:00:50.928Z,0.46
2018-12-16T15:15:51.402Z,0.45
2018-12-16T15:30:50.922Z,0.16
2018-12-16T15:45:57.446Z,0.07
2018-12-16T16:00:53.941Z,0.07
2018-12-16T16:15:52.465Z,0.01
2018-12-16T16:30:51.117Z,-0.03
2018-12-16T16:45:51.068Z,-0.04
2018-12-16T17:00:53.005Z,-0.12
2018-12-16T17:15:50.903Z,-0.23
2018-12-16T17:30:53.849Z,-0.28
2018-12-16T17:45:51.877Z,-0.33
2018-12-16T18:00:53.252Z,-0.39
2018-12-16T18:15:51.191Z,-0.56
2018-12-16T18:30:53.644Z,-0.60
2018-12-16T18:45:51.590Z,-0.59
2018-12-16T19:00:51.476Z,-0.57
2018-12-16T19:15:52.350Z,-0.48
2018-12-16T19:30:53.524Z,-0.39
2018-12-16T19:45:52.793Z,-0.27
2018-12-16T20:00:51.683Z,-0.25
2018-12-16T20:15:52.629Z,-0.19
2018-12-16T20:30:50.980Z,-0.17
2018-12-16T20:45:50.950Z,-0.18
2018-12-16T21:00:58.535Z,-0.16
2018-12-16T21:30:53.178Z,-0.18
2018-12-16T21:45:51.226Z,-0.26
2018-12-16T22:00:51.124Z,-0.22
2018-12-16T22:15:50.987Z,-0.22
2018-12-16T22:30:51.426Z,-0.19
2018-12-16T22:45:51.329Z,-0.17
2018-12-16T23:00:56.381Z,-0.22
2018-12-16T23:15:53.260Z,-0.24
2018-12-16T23:30:51.633Z,-0.25
2018-12-16T23:45:51.635Z,-0.22
